Woodside Donaldson — 9V8262 — position and weather

sailwx.info

Track history (hours):
 
Tides and Currents Weather Stations Pressure Air Temp Water Temp Dewpoint Dewpoint Depression Visibility Wind Speed Wind Dir Waves Ship Positions

Woodside Donaldson

Last reported at 2017-Dec-10 14:46 UTC. Time now 2017-Dec-12 16:04 UTC.
Position N 21°29' E 118°16'.

Length 286 m; draft 11 m.

Type: Tanker. MMSI: 564629000.

Date/timePositionNaut miles runAvg speedWind from/ knotsBaromVisibWave heightAir tempDewpointWater temp
2017-Dec-10 14:46N 21°29' E 118°16'311.0
2017-Dec-10 14:30N 21°32' E 118°16'  
2017-Dec-01 10:26S 19°24' E 117°19'717.1
2017-Dec-01 10:00S 19°30' E 117°16'917.1
2017-Dec-01 09:30S 19°38' E 117°11'817.1
2017-Dec-01 09:00S 19°45' E 117°07'917.0
2017-Dec-01 08:29S 19°53' E 117°02'917.0
2017-Dec-01 07:58S 20°00' E 116°57'817.1
2017-Dec-01 07:30S 20°07' E 116°53'917.1
2017-Dec-01 06:59S 20°15' E 116°48'814.8
2017-Dec-01 06:29S 20°22' E 116°45'5 9.5
2017-Dec-01 06:00S 20°26' E 116°44'510.5
2017-Dec-01 05:30S 20°31' E 116°43'4 7.8
2017-Dec-01 05:00S 20°35' E 116°44'  
Track history (hours):
 
Tides and Currents Weather Stations Pressure Air Temp Water Temp Dewpoint Dewpoint Depression Visibility Wind Speed Wind Dir Waves Ship Positions

Woodside Donaldson

Last reported at 2017-Dec-10 14:46 UTC. Time now 2017-Dec-12 16:04 UTC.
Position N 21°29' E 118°16'.

Length 286 m; draft 11 m.

Type: Tanker. MMSI: 564629000.

Date/timePositionNaut miles runAvg speedWind from/ knotsBaromVisibWave heightAir tempDewpointWater temp
2017-Dec-10 14:46N 21°29' E 118°16'311.0
2017-Dec-10 14:30N 21°32' E 118°16'  
2017-Dec-01 10:26S 19°24' E 117°19'717.1
2017-Dec-01 10:00S 19°30' E 117°16'917.1
2017-Dec-01 09:30S 19°38' E 117°11'817.1
2017-Dec-01 09:00S 19°45' E 117°07'917.0
2017-Dec-01 08:29S 19°53' E 117°02'917.0
2017-Dec-01 07:58S 20°00' E 116°57'817.1
2017-Dec-01 07:30S 20°07' E 116°53'917.1
2017-Dec-01 06:59S 20°15' E 116°48'814.8
2017-Dec-01 06:29S 20°22' E 116°45'5 9.5
2017-Dec-01 06:00S 20°26' E 116°44'510.5
2017-Dec-01 05:30S 20°31' E 116°43'4 7.8
2017-Dec-01 05:00S 20°35' E 116°44'  

Dump ship's entire track history